Time;durP1;ratioP1;P1;durP2;ratioP2;P2;SDS_P1;SDS_P2;PMS_P1;PMS_P2;Temp;Humidity;BMP_temperature;BMP_pressure;BME280_temperature;BME280_humidity;BME280_pressure;Samples;Min_cycle;Max_cycle;Signal;HPM_P1;HPM_P2
2023/10/22 00:01:52;;;;;;;19.40;11.60;;;;;;;17.28;79.68;97923.68;234525;214;147434;-47
2023/10/22 00:06:56;;;;;;;19.20;10.80;;;;;;;17.25;79.52;97926.41;234301;214;140210;-53
2023/10/22 00:11:59;;;;;;;15.80;10.90;;;;;;;17.23;79.63;97930.80;234113;214;139444;-51
2023/10/22 00:17:03;;;;;;;17.70;10.30;;;;;;;17.20;79.69;97931.27;234395;215;149380;-50
2023/10/22 00:22:21;;;;;;;16.40;10.20;;;;;;;17.18;79.73;97927.63;234421;214;139917;-51
2023/10/22 00:27:24;;;;;;;20.90;10.80;;;;;;;17.17;79.93;97927.66;234451;214;137880;-51
2023/10/22 00:32:28;;;;;;;19.00;10.40;;;;;;;17.17;80.11;97927.30;234560;214;148527;-50
2023/10/22 00:37:32;;;;;;;15.50;10.60;;;;;;;17.17;80.13;97922.98;234158;214;139752;-51
2023/10/22 00:42:35;;;;;;;14.80;8.20;;;;;;;17.16;80.13;97914.86;234293;214;137105;-50
2023/10/22 00:47:38;;;;;;;13.60;7.80;;;;;;;17.14;80.26;97918.85;234556;215;147589;-52
2023/10/22 00:52:41;;;;;;;15.00;8.60;;;;;;;17.13;80.41;97915.76;234655;214;139323;-51
2023/10/22 00:57:44;;;;;;;15.20;9.30;;;;;;;17.15;80.46;97912.50;234135;215;136789;-50
2023/10/22 01:02:47;;;;;;;16.60;9.00;;;;;;;17.13;80.57;97910.58;234367;215;147666;-52
2023/10/22 01:07:52;;;;;;;15.40;8.10;;;;;;;17.11;80.67;97916.86;234342;215;139386;-50
2023/10/22 01:12:55;;;;;;;12.10;7.20;;;;;;;17.05;80.78;97921.24;234610;214;138341;-51
2023/10/22 01:17:58;;;;;;;9.70;6.40;;;;;;;17.06;81.23;97903.20;234232;215;148737;-51
2023/10/22 01:23:01;;;;;;;10.80;7.70;;;;;;;17.11;81.23;97891.23;234469;214;138917;-50
2023/10/22 01:28:05;;;;;;;11.50;5.60;;;;;;;17.10;81.34;97872.88;234328;215;139484;-49
2023/10/22 01:33:08;;;;;;;7.90;5.10;;;;;;;17.13;81.33;97860.71;234512;214;147584;-53
2023/10/22 01:38:12;;;;;;;9.40;5.20;;;;;;;17.18;81.29;97861.65;233639;215;139019;-50
2023/10/22 01:43:15;;;;;;;7.90;4.20;;;;;;;17.18;81.10;97852.62;234564;215;136961;-52
2023/10/22 01:48:18;;;;;;;7.20;3.40;;;;;;;17.20;81.17;97842.23;234215;215;148812;-53
2023/10/22 01:53:21;;;;;;;7.80;2.50;;;;;;;17.21;80.85;97837.96;234751;214;140320;-52
2023/10/22 01:58:24;;;;;;;6.80;2.90;;;;;;;17.18;80.89;97834.20;234692;214;137523;-52
2023/10/22 02:03:27;;;;;;;3.60;2.70;;;;;;;17.17;80.86;97836.25;234567;215;147642;-49
2023/10/22 02:08:31;;;;;;;4.50;2.80;;;;;;;17.13;80.82;97824.73;234309;215;139540;-52
2023/10/22 02:13:35;;;;;;;9.00;3.30;;;;;;;17.14;80.92;97816.48;234110;214;138902;-52
2023/10/22 02:18:38;;;;;;;7.30;3.40;;;;;;;17.10;80.85;97811.00;234540;214;147297;-51
2023/10/22 02:23:41;;;;;;;6.80;4.10;;;;;;;17.02;80.96;97818.73;234593;215;141538;-53
2023/10/22 02:28:45;;;;;;;8.30;3.20;;;;;;;16.92;81.11;97811.58;234603;214;138838;-52
2023/10/22 02:33:48;;;;;;;7.00;3.70;;;;;;;16.94;81.26;97809.23;234531;214;147692;-49
2023/10/22 02:38:51;;;;;;;5.00;3.00;;;;;;;16.91;81.40;97813.27;234442;215;138897;-50
2023/10/22 02:43:55;;;;;;;5.40;3.40;;;;;;;16.92;81.72;97807.58;233603;215;137554;-52
2023/10/22 02:48:58;;;;;;;8.20;4.20;;;;;;;16.92;81.95;97822.91;233912;214;147744;-49
2023/10/22 02:54:03;;;;;;;8.10;5.00;;;;;;;16.86;82.19;97825.48;234554;214;139108;-52
2023/10/22 02:59:07;;;;;;;8.90;6.10;;;;;;;16.86;82.52;97830.38;234717;214;137543;-51
2023/10/22 03:04:11;;;;;;;10.70;7.60;;;;;;;16.85;82.73;97829.68;234449;215;148606;-51
2023/10/22 03:09:14;;;;;;;11.70;8.30;;;;;;;16.88;82.87;97829.21;234303;214;140067;-50
2023/10/22 03:14:20;;;;;;;12.90;8.30;;;;;;;16.88;82.99;97822.23;234545;214;137030;-52
2023/10/22 03:19:24;;;;;;;11.00;8.10;;;;;;;16.87;83.10;97823.42;234563;214;148188;-52
2023/10/22 03:24:27;;;;;;;10.20;7.60;;;;;;;16.88;83.23;97824.95;234593;214;139716;-50
2023/10/22 03:29:31;;;;;;;12.50;7.20;;;;;;;16.90;83.33;97820.75;234807;214;138255;-50
2023/10/22 03:34:35;;;;;;;10.20;7.00;;;;;;;16.97;83.28;97802.55;234544;214;148261;-51
2023/10/22 03:39:41;;;;;;;11.00;7.70;;;;;;;17.05;82.91;97800.02;234507;215;140588;-47
2023/10/22 03:44:44;;;;;;;;;;;;;;;17.06;82.93;97793.57;234504;214;137866;-52
2023/10/22 03:49:47;;;;;;;10.00;7.30;;;;;;;17.04;82.78;97798.77;234529;215;148011;-51
2023/10/22 03:54:51;;;;;;;8.70;6.50;;;;;;;16.99;82.99;97802.02;234572;214;139403;-54
2023/10/22 03:59:54;;;;;;;10.50;6.40;;;;;;;16.94;82.98;97810.41;234468;214;138230;-51
2023/10/22 04:04:57;;;;;;;8.90;6.10;;;;;;;16.99;83.31;97797.21;234598;215;147519;-53
2023/10/22 04:10:02;;;;;;;9.50;6.70;;;;;;;17.03;82.98;97767.52;234572;214;139090;-50
2023/10/22 04:15:06;;;;;;;10.40;7.10;;;;;;;17.09;83.00;97771.73;234440;215;137065;-51
2023/10/22 04:20:10;;;;;;;8.80;7.10;;;;;;;17.10;82.77;97768.27;234326;214;147823;-53
2023/10/22 04:25:13;;;;;;;9.70;7.10;;;;;;;17.06;82.81;97762.91;234536;215;139877;-51
2023/10/22 04:30:16;;;;;;;9.40;6.60;;;;;;;17.05;82.72;97754.11;234472;215;138402;-54
2023/10/22 04:35:19;;;;;;;8.90;6.50;;;;;;;17.03;83.07;97769.73;234682;215;147171;-51
2023/10/22 04:40:25;;;;;;;8.10;6.50;;;;;;;17.08;82.84;97783.89;233972;215;139580;-52
2023/10/22 04:45:28;;;;;;;;;;;;;;;17.07;82.76;97783.98;233329;215;137548;-51
2023/10/22 04:50:31;;;;;;;8.00;7.20;;;;;;;17.06;82.61;97785.36;234527;215;147421;-49
2023/10/22 04:55:34;;;;;;;8.90;7.30;;;;;;;17.00;82.85;97797.39;234050;215;139999;-51
2023/10/22 05:00:38;;;;;;;10.60;7.00;;;;;;;17.02;82.87;97824.13;234377;215;137327;-51
2023/10/22 05:05:41;;;;;;;10.00;6.90;;;;;;;16.99;82.82;97815.83;234617;215;148783;-49
2023/10/22 05:10:44;;;;;;;9.90;7.80;;;;;;;17.00;82.96;97813.73;234211;215;138861;-57
2023/10/22 05:15:52;;;;;;;10.60;7.80;;;;;;;17.06;82.89;97817.92;234326;214;137343;-57
2023/10/22 05:21:04;;;;;;;9.90;7.40;;;;;;;17.03;82.82;97830.83;234412;215;148799;-56
2023/10/22 05:26:12;;;;;;;8.70;6.80;;;;;;;17.00;82.92;97813.05;234302;215;139327;-56
2023/10/22 05:31:18;;;;;;;10.90;7.90;;;;;;;16.99;83.05;97798.64;234479;215;138234;-58
2023/10/22 05:36:22;;;;;;;8.50;6.40;;;;;;;16.96;83.08;97816.36;234860;214;147333;-58
2023/10/22 05:41:27;;;;;;;158.90;138.20;;;;;;;17.11;83.91;97813.05;234691;214;139192;-58
2023/10/22 05:46:34;;;;;;;12.30;10.70;;;;;;;17.17;83.38;97813.16;234555;214;137373;-59
2023/10/22 05:51:38;;;;;;;9.20;6.70;;;;;;;17.13;83.14;97805.39;234557;214;148434;-58
2023/10/22 05:56:41;;;;;;;8.10;5.80;;;;;;;17.09;82.84;97799.71;234533;215;140191;-58
2023/10/22 06:01:44;;;;;;;75.60;67.50;;;;;;;17.09;82.86;97798.77;234582;214;139794;-59
2023/10/22 06:06:48;;;;;;;34.40;30.70;;;;;;;17.12;83.16;97792.76;234384;214;147671;-58
2023/10/22 06:11:51;;;;;;;6.80;5.70;;;;;;;17.17;82.87;97786.48;233507;212;140218;-59
2023/10/22 06:16:54;;;;;;;5.90;4.90;;;;;;;17.14;82.68;97797.73;234537;215;137068;-60
2023/10/22 06:21:57;;;;;;;5.40;4.60;;;;;;;17.14;82.67;97802.02;234505;214;148109;-60
2023/10/22 06:27:01;;;;;;;6.00;5.20;;;;;;;17.15;82.65;97802.94;234458;214;139536;-57
2023/10/22 06:32:04;;;;;;;6.90;5.40;;;;;;;17.16;82.29;97806.14;234513;214;137553;-57
2023/10/22 06:37:07;;;;;;;6.20;4.80;;;;;;;17.12;82.12;97812.86;234533;214;148733;-57
2023/10/22 06:42:11;;;;;;;7.40;4.80;;;;;;;17.11;82.48;97817.36;234497;214;140268;-57
2023/10/22 06:47:14;;;;;;;5.80;4.10;;;;;;;17.14;83.09;97831.41;234495;214;137641;-56
2023/10/22 06:52:19;;;;;;;5.30;3.70;;;;;;;17.20;83.34;97837.33;234558;214;147320;-58
2023/10/22 06:57:22;;;;;;;4.50;4.10;;;;;;;17.34;83.14;97830.00;234462;214;140274;-58
2023/10/22 07:02:26;;;;;;;4.60;3.70;;;;;;;17.43;82.72;97831.42;234099;214;136726;-59
2023/10/22 07:07:29;;;;;;;6.90;3.70;;;;;;;17.43;82.32;97831.61;234518;214;147430;-58
2023/10/22 07:12:32;;;;;;;7.90;5.40;;;;;;;17.45;82.24;97829.14;234562;214;138683;-58
2023/10/22 07:17:35;;;;;;;79.80;64.30;;;;;;;17.54;82.88;97829.52;234217;215;140185;-58
2023/10/22 07:22:38;;;;;;;6.40;4.70;;;;;;;17.83;82.98;97829.90;234479;215;148757;-60
2023/10/22 07:27:42;;;;;;;25.00;19.90;;;;;;;18.03;82.04;97837.98;233417;215;141055;-46
2023/10/22 07:32:57;;;;;;;;;;;;;;;18.24;82.02;97848.57;234552;215;138098;-59
2023/10/22 07:38:01;;;;;;;6.60;4.50;;;;;;;18.22;81.10;97853.07;233792;214;148845;-59
2023/10/22 07:43:04;;;;;;;7.30;5.40;;;;;;;18.12;80.83;97858.95;234308;214;138832;-58
2023/10/22 07:48:08;;;;;;;129.00;102.30;;;;;;;18.09;81.19;97853.58;234528;214;137959;-62
2023/10/22 07:53:11;;;;;;;8.90;6.90;;;;;;;18.21;81.08;97857.86;234523;214;148560;-65
2023/10/22 07:58:15;;;;;;;103.00;78.50;;;;;;;18.26;80.74;97856.42;234330;214;139417;-60
2023/10/22 08:03:18;;;;;;;64.70;48.30;;;;;;;18.29;80.75;97857.70;234376;215;140497;-63
2023/10/22 08:08:22;;;;;;;5.60;5.10;;;;;;;18.28;80.21;97853.65;234281;215;148223;-62
2023/10/22 08:13:26;;;;;;;13.90;10.30;;;;;;;18.19;80.25;97845.88;234362;214;139736;-62
2023/10/22 08:18:31;;;;;;;5.60;4.80;;;;;;;18.15;80.41;97831.05;234328;215;139164;-63
2023/10/22 08:23:34;;;;;;;306.30;231.80;;;;;;;18.19;80.94;97804.52;234419;214;148980;-58
2023/10/22 08:28:38;;;;;;;343.20;278.10;;;;;;;18.39;81.65;97809.31;233975;215;140869;-62
2023/10/22 08:33:41;;;;;;;13.80;10.50;;;;;;;18.54;81.07;97806.63;234209;215;137782;-60
2023/10/22 08:38:44;;;;;;;7.90;6.10;;;;;;;18.62;80.88;97796.73;234203;215;148291;-60
2023/10/22 08:43:49;;;;;;;5.50;3.40;;;;;;;18.64;80.61;97804.44;234396;214;139779;-64
2023/10/22 08:48:53;;;;;;;8.00;2.80;;;;;;;18.66;80.22;97819.09;234281;215;137997;-61
2023/10/22 08:53:57;;;;;;;4.50;2.70;;;;;;;18.71;80.26;97829.89;234523;214;148384;-61
2023/10/22 08:59:03;;;;;;;4.00;2.60;;;;;;;18.81;80.06;97833.52;234434;215;141066;-63
2023/10/22 09:04:07;;;;;;;3.10;2.00;;;;;;;18.81;79.41;97828.20;234353;214;154466;-64
2023/10/22 09:09:31;;;;;;;2.90;1.90;;;;;;;18.80;79.31;97831.35;234381;215;148285;-58
2023/10/22 09:14:35;;;;;;;21.30;17.90;;;;;;;18.88;79.22;97843.89;233670;215;138911;-61
2023/10/22 09:19:46;;;;;;;33.10;23.90;;;;;;;18.93;78.34;97851.11;234463;214;137746;-63
2023/10/22 09:24:57;;;;;;;6.10;4.60;;;;;;;18.78;77.96;97856.55;234455;214;149222;-61
2023/10/22 09:30:02;;;;;;;2.30;1.50;;;;;;;18.69;77.92;97855.77;234389;214;140936;-60
2023/10/22 09:35:15;;;;;;;2.60;1.40;;;;;;;18.66;77.88;97853.04;234498;214;138244;-60
2023/10/22 09:40:19;;;;;;;3.00;1.40;;;;;;;18.65;77.95;97850.05;234420;215;148373;-61
2023/10/22 09:45:24;;;;;;;48.20;42.60;;;;;;;18.66;77.86;97853.55;234369;214;140722;-63
2023/10/22 09:50:30;;;;;;;18.50;14.10;;;;;;;18.70;78.11;97855.88;234391;215;137566;-62
2023/10/22 09:55:38;;;;;;;3.50;2.30;;;;;;;18.67;77.85;97861.02;234340;214;147662;-58
2023/10/22 10:00:44;;;;;;;1.60;1.00;;;;;;;18.64;77.71;97861.20;234076;214;139820;-59
2023/10/22 10:05:55;;;;;;;3.10;1.50;;;;;;;18.60;77.10;97858.73;234351;214;139233;-60
2023/10/22 10:10:59;;;;;;;1.70;1.30;;;;;;;18.52;76.92;97862.52;234389;214;148196;-62
2023/10/22 10:16:05;;;;;;;31.30;26.10;;;;;;;18.51;77.31;97869.17;234332;214;138900;-60
2023/10/22 10:21:34;;;;;;;14.00;9.70;;;;;;;18.56;77.58;97870.61;234464;214;137435;-57
2023/10/22 10:26:38;;;;;;;2.70;1.80;;;;;;;18.56;77.54;97874.13;234304;215;147557;-60
2023/10/22 10:31:45;;;;;;;3.70;2.20;;;;;;;18.55;77.72;97877.88;234260;214;140705;-59
2023/10/22 10:36:49;;;;;;;46.80;37.50;;;;;;;18.62;78.23;97880.62;234442;214;136485;-61
2023/10/22 10:41:53;;;;;;;7.20;4.50;;;;;;;18.64;78.38;97884.89;234326;215;147415;-61
2023/10/22 10:47:20;;;;;;;4.20;2.10;;;;;;;18.58;78.49;97894.27;234294;214;140834;-63
2023/10/22 10:52:24;;;;;;;2.40;1.30;;;;;;;18.52;78.48;97894.23;234366;214;138857;-63
2023/10/22 10:57:35;;;;;;;2.70;1.60;;;;;;;18.44;78.64;97894.35;234270;214;147541;-63
2023/10/22 11:02:42;;;;;;;4.60;1.70;;;;;;;18.44;79.06;97897.93;234181;214;138905;-60
2023/10/22 11:07:46;;;;;;;4.20;1.90;;;;;;;18.37;79.11;97895.29;234397;214;136816;-64
2023/10/22 11:12:53;;;;;;;3.00;2.30;;;;;;;18.31;79.52;97896.34;234414;214;147960;-61
2023/10/22 11:18:03;;;;;;;50.80;35.70;;;;;;;18.27;79.54;97900.46;234496;214;138723;-64
2023/10/22 11:23:19;;;;;;;45.20;31.20;;;;;;;18.33;79.85;97898.48;234559;214;138363;-61
2023/10/22 11:28:24;;;;;;;4.00;2.50;;;;;;;18.33;79.45;97904.96;234382;214;148250;-63
2023/10/22 11:33:29;;;;;;;4.20;2.80;;;;;;;18.22;79.41;97904.41;234399;214;138732;-64
2023/10/22 11:38:40;;;;;;;3.40;2.40;;;;;;;18.15;79.69;97915.39;234416;215;138988;-61
2023/10/22 11:43:43;;;;;;;2.80;2.10;;;;;;;18.08;79.88;97917.77;234422;214;148303;-61
2023/10/22 11:48:47;;;;;;;5.60;2.50;;;;;;;18.08;80.11;97921.26;234294;214;139237;-57
2023/10/22 11:53:50;;;;;;;4.90;2.70;;;;;;;18.08;80.21;97927.27;234529;214;136571;-60
2023/10/22 11:58:55;;;;;;;136.30;98.60;;;;;;;18.04;80.18;97934.19;234381;214;147683;-61
2023/10/22 12:03:59;;;;;;;5.50;3.50;;;;;;;18.06;80.26;97936.52;234387;214;138818;-62
2023/10/22 12:09:03;;;;;;;5.20;2.90;;;;;;;18.01;80.19;97943.55;234327;214;138725;-61
2023/10/22 12:14:06;;;;;;;44.70;33.60;;;;;;;17.93;80.36;97941.13;234336;215;147608;-59
2023/10/22 12:19:10;;;;;;;4.70;3.30;;;;;;;17.89;80.46;97950.38;233647;214;138921;-58
2023/10/22 12:24:13;;;;;;;3.50;1.90;;;;;;;17.70;79.92;97957.64;234345;214;138876;-59
2023/10/22 12:29:29;;;;;;;3.20;2.60;;;;;;;17.52;79.97;97968.54;234471;214;148494;-61
2023/10/22 12:34:32;;;;;;;3.60;2.70;;;;;;;17.37;79.86;97978.27;234373;214;138998;-60
2023/10/22 12:39:36;;;;;;;5.70;4.50;;;;;;;17.25;80.49;97981.36;234394;214;136526;-59
2023/10/22 12:44:46;;;;;;;107.10;76.20;;;;;;;17.16;80.54;97992.86;234418;214;147967;-56
2023/10/22 12:49:50;;;;;;;3.40;2.60;;;;;;;17.11;80.59;98003.63;234226;215;140159;-56
2023/10/22 12:54:53;;;;;;;3.10;2.20;;;;;;;17.02;80.71;98007.73;234354;214;137988;-59
2023/10/22 12:59:56;;;;;;;2.10;1.70;;;;;;;16.90;80.77;98021.60;234507;214;149105;-60
2023/10/22 13:04:59;;;;;;;33.90;27.20;;;;;;;16.74;81.19;98021.30;234329;215;140265;-58
2023/10/22 13:10:04;;;;;;;6.70;2.30;;;;;;;16.65;81.62;98032.05;234383;214;139069;-58
2023/10/22 13:15:08;;;;;;;3.80;1.90;;;;;;;16.58;81.80;98049.56;234356;214;148373;-58
2023/10/22 13:20:12;;;;;;;2.90;2.10;;;;;;;16.44;82.03;98056.91;234241;215;139775;-61
2023/10/22 13:25:15;;;;;;;4.00;2.60;;;;;;;16.35;82.46;98064.42;234379;215;137526;-60
2023/10/22 13:30:18;;;;;;;2.20;2.00;;;;;;;16.32;82.73;98079.91;234337;214;148536;-61
2023/10/22 13:35:22;;;;;;;2.90;2.10;;;;;;;16.34;82.44;98098.25;234500;214;138994;-61
2023/10/22 13:40:28;;;;;;;3.70;2.20;;;;;;;16.40;82.06;98110.33;234338;214;139164;-63
2023/10/22 13:45:35;;;;;;;3.60;1.50;;;;;;;16.37;81.61;98121.75;234444;214;147264;-62
2023/10/22 13:50:38;;;;;;;3.10;1.60;;;;;;;16.27;80.87;98133.84;234317;215;139324;-61
2023/10/22 13:55:42;;;;;;;1.40;1.30;;;;;;;16.22;80.69;98141.00;234256;215;137669;-62
2023/10/22 14:00:45;;;;;;;1.50;1.20;;;;;;;16.18;80.18;98153.19;234457;214;147914;-61
2023/10/22 14:05:52;;;;;;;1.40;1.10;;;;;;;16.14;79.51;98167.90;234494;214;138981;-61
2023/10/22 14:10:56;;;;;;;65.20;52.70;;;;;;;16.07;79.04;98186.08;234462;215;139734;-64
2023/10/22 14:16:07;;;;;;;1.70;1.20;;;;;;;16.01;78.88;98196.20;234371;215;148039;-62
2023/10/22 14:21:10;;;;;;;1.70;1.10;;;;;;;15.93;78.92;98208.94;234350;214;139299;-60
2023/10/22 14:26:14;;;;;;;1.40;1.20;;;;;;;15.88;79.18;98210.04;234369;215;138739;-62
2023/10/22 14:31:19;;;;;;;1.10;1.00;;;;;;;15.82;79.28;98214.63;234427;214;147517;-59
2023/10/22 14:36:23;;;;;;;0.70;0.70;;;;;;;15.74;79.28;98231.52;234229;215;139121;-61
2023/10/22 14:41:26;;;;;;;2.10;1.40;;;;;;;15.67;79.30;98240.59;234258;215;137333;-59
2023/10/22 14:46:31;;;;;;;2.50;1.30;;;;;;;15.63;79.36;98240.77;234158;215;148297;-59
2023/10/22 14:51:34;;;;;;;1.90;1.10;;;;;;;15.59;79.42;98244.57;234112;215;138782;-62
2023/10/22 14:56:37;;;;;;;2.10;1.40;;;;;;;15.57;79.39;98247.30;234247;214;137907;-61
2023/10/22 15:01:40;;;;;;;2.70;1.20;;;;;;;15.58;79.29;98262.33;234281;215;147707;-62
2023/10/22 15:06:44;;;;;;;3.80;1.50;;;;;;;15.60;79.17;98267.89;234175;215;138973;-63
2023/10/22 15:11:47;;;;;;;2.60;1.50;;;;;;;15.65;78.98;98276.94;234308;215;136797;-62
2023/10/22 15:16:50;;;;;;;2.30;1.70;;;;;;;15.60;78.83;98287.56;234238;215;147977;-64
2023/10/22 15:21:53;;;;;;;2.00;1.30;;;;;;;15.57;78.58;98294.28;234175;215;142442;-64
2023/10/22 15:26:57;;;;;;;3.10;1.70;;;;;;;15.54;78.32;98301.70;234332;215;136810;-64
2023/10/22 15:32:02;;;;;;;14.80;11.60;;;;;;;15.54;78.44;98311.42;234162;214;149089;-61
2023/10/22 15:37:06;;;;;;;4.20;2.80;;;;;;;15.55;78.31;98312.01;234036;214;138749;-60
2023/10/22 15:42:09;;;;;;;242.30;186.70;;;;;;;15.58;77.76;98317.44;234374;214;138345;-62
2023/10/22 15:47:12;;;;;;;3.40;2.60;;;;;;;15.64;77.48;98323.34;234438;214;150417;-62
2023/10/22 15:52:16;;;;;;;2.60;1.90;;;;;;;15.65;77.03;98333.74;234293;214;139039;-61
2023/10/22 15:57:19;;;;;;;3.90;1.80;;;;;;;15.62;76.78;98341.88;234425;214;137861;-58
2023/10/22 16:02:22;;;;;;;2.30;1.70;;;;;;;15.57;76.87;98344.18;234404;214;148202;-58
2023/10/22 16:07:25;;;;;;;2.90;1.70;;;;;;;15.58;77.08;98348.60;234403;214;140276;-57
2023/10/22 16:12:28;;;;;;;3.60;2.20;;;;;;;15.65;76.98;98358.48;234393;214;138626;-57
2023/10/22 16:17:34;;;;;;;5.40;2.40;;;;;;;15.66;77.12;98368.73;234599;214;147554;-57
2023/10/22 16:22:38;;;;;;;;;;;;;;;15.64;77.19;98381.27;234390;214;139380;-57
2023/10/22 16:27:41;;;;;;;5.10;2.90;;;;;;;15.63;77.31;98387.23;234115;212;133249;-56
2023/10/22 16:32:47;;;;;;;6.20;2.90;;;;;;;15.59;77.44;98395.96;234401;214;147528;-56
2023/10/22 16:37:50;;;;;;;6.00;2.90;;;;;;;15.55;77.55;98412.14;234423;214;139641;-57
2023/10/22 16:42:53;;;;;;;109.80;81.70;;;;;;;15.58;78.07;98415.92;234415;214;138695;-57
2023/10/22 16:47:56;;;;;;;5.40;3.90;;;;;;;15.69;78.09;98428.74;234411;214;147975;-59
2023/10/22 16:53:00;;;;;;;5.20;3.40;;;;;;;15.65;77.67;98434.30;234345;214;139908;-55
2023/10/22 16:58:03;;;;;;;6.90;3.20;;;;;;;15.61;77.63;98442.83;234371;214;138848;-58
2023/10/22 17:03:06;;;;;;;5.60;3.10;;;;;;;15.59;77.25;98446.05;234325;215;147924;-57
2023/10/22 17:08:10;;;;;;;6.70;2.90;;;;;;;15.58;76.82;98447.03;234346;215;139063;-57
2023/10/22 17:13:14;;;;;;;5.30;2.70;;;;;;;15.51;75.73;98457.88;234399;214;137230;-59
2023/10/22 17:18:17;;;;;;;3.70;2.20;;;;;;;15.46;74.81;98456.21;234329;214;149899;-58
2023/10/22 17:23:21;;;;;;;6.00;2.50;;;;;;;15.40;74.41;98461.42;234265;214;139354;-57
2023/10/22 17:28:24;;;;;;;5.00;2.90;;;;;;;15.38;74.77;98460.85;234347;215;139804;-57
2023/10/22 17:33:28;;;;;;;6.10;3.50;;;;;;;15.44;75.21;98461.80;234110;215;148804;-57
2023/10/22 17:38:34;;;;;;;7.60;4.10;;;;;;;15.45;75.63;98466.66;234469;214;138922;-59
2023/10/22 17:43:37;;;;;;;7.00;4.20;;;;;;;15.43;76.17;98474.42;234365;214;138440;-59
2023/10/22 17:48:41;;;;;;;7.10;4.00;;;;;;;15.39;76.46;98480.98;234451;214;148161;-59
2023/10/22 17:53:47;;;;;;;10.50;3.90;;;;;;;15.36;76.90;98493.58;234504;214;138781;-59
2023/10/22 17:58:50;;;;;;;;;;;;;;;15.40;77.29;98499.16;234450;214;138770;-56
2023/10/22 18:03:53;;;;;;;7.60;5.10;;;;;;;15.39;77.59;98511.71;234457;215;148650;-58
2023/10/22 18:08:58;;;;;;;7.90;4.90;;;;;;;15.32;77.71;98518.83;234471;214;139899;-59
2023/10/22 18:14:02;;;;;;;9.40;4.50;;;;;;;15.31;77.87;98525.86;234441;214;137797;-58
2023/10/22 18:19:05;;;;;;;9.20;4.50;;;;;;;15.27;77.92;98536.42;234352;214;147546;-59
2023/10/22 18:24:14;;;;;;;138.50;97.80;;;;;;;15.32;78.35;98543.99;234392;215;139772;-58
2023/10/22 18:29:18;;;;;;;9.40;5.20;;;;;;;15.40;78.30;98550.67;233362;215;137734;-58
2023/10/22 18:34:21;;;;;;;8.20;5.00;;;;;;;15.37;77.75;98560.71;234425;214;147588;-58
2023/10/22 18:39:25;;;;;;;9.60;5.10;;;;;;;15.29;78.15;98566.42;233998;214;139526;-60
2023/10/22 18:44:29;;;;;;;8.30;4.70;;;;;;;15.27;77.93;98573.73;234245;215;138943;-61
2023/10/22 18:49:32;;;;;;;9.80;5.20;;;;;;;15.26;78.01;98581.20;234407;215;148986;-62
2023/10/22 18:54:36;;;;;;;8.80;5.50;;;;;;;15.23;78.09;98591.80;234404;215;139395;-59
2023/10/22 18:59:40;;;;;;;11.90;5.30;;;;;;;15.18;78.02;98602.61;234336;214;138031;-64
2023/10/22 19:04:44;;;;;;;6.70;4.40;;;;;;;15.12;77.96;98611.85;234314;214;148174;-61
2023/10/22 19:09:48;;;;;;;7.70;4.90;;;;;;;15.07;77.81;98617.35;234131;214;139844;-60
2023/10/22 19:14:51;;;;;;;9.30;4.80;;;;;;;15.03;77.99;98621.30;234294;214;137671;-61
2023/10/22 19:19:54;;;;;;;11.60;5.60;;;;;;;15.05;77.78;98631.42;234417;215;148082;-61
2023/10/22 19:24:57;;;;;;;11.30;5.30;;;;;;;15.03;77.66;98639.14;234485;214;139173;-62
2023/10/22 19:30:02;;;;;;;8.60;5.10;;;;;;;15.00;77.55;98644.23;234583;214;248150;-62
2023/10/22 19:35:08;;;;;;;9.20;5.00;;;;;;;14.97;77.57;98647.73;234533;214;160630;-61
2023/10/22 19:40:12;;;;;;;9.50;5.50;;;;;;;14.96;77.34;98648.52;234418;214;139015;-61
2023/10/22 19:45:15;;;;;;;13.00;5.20;;;;;;;14.95;77.30;98658.45;234398;215;138156;-61
2023/10/22 19:50:18;;;;;;;11.40;5.30;;;;;;;14.91;77.19;98665.21;234567;214;148648;-60
2023/10/22 19:55:25;;;;;;;10.30;5.40;;;;;;;14.84;77.17;98671.69;234458;215;140909;-61
2023/10/22 20:00:31;;;;;;;10.10;5.20;;;;;;;14.82;77.13;98675.91;234515;214;137653;-60
2023/10/22 20:05:40;;;;;;;9.90;4.60;;;;;;;14.84;77.01;98675.27;234562;214;147582;-60
2023/10/22 20:10:46;;;;;;;10.30;5.80;;;;;;;14.87;76.81;98681.02;234439;215;139589;-61
2023/10/22 20:15:49;;;;;;;8.30;5.20;;;;;;;14.91;76.57;98685.19;233333;214;139880;-57
2023/10/22 20:20:53;;;;;;;11.20;5.20;;;;;;;14.91;76.58;98690.89;234066;214;147638;-59
2023/10/22 20:25:56;;;;;;;9.20;5.40;;;;;;;14.94;76.46;98695.88;233425;215;139965;-52
2023/10/22 20:30:59;;;;;;;8.70;4.80;;;;;;;14.93;76.34;98704.46;234375;214;137527;-59
2023/10/22 20:36:05;;;;;;;8.70;5.10;;;;;;;14.92;76.48;98706.40;234574;214;147352;-59
2023/10/22 20:41:08;;;;;;;11.90;5.30;;;;;;;14.97;76.32;98714.38;234600;214;138947;-59
2023/10/22 20:46:12;;;;;;;8.60;5.20;;;;;;;14.95;76.16;98714.74;234194;214;137210;-60
2023/10/22 20:51:15;;;;;;;11.10;6.10;;;;;;;14.94;76.10;98719.80;234328;214;148178;-62
2023/10/22 20:56:19;;;;;;;14.70;5.60;;;;;;;14.90;75.99;98726.33;234397;214;139821;-62
2023/10/22 21:01:24;;;;;;;9.20;5.10;;;;;;;14.80;76.04;98728.96;234204;215;137633;-61
2023/10/22 21:06:27;;;;;;;10.00;5.40;;;;;;;14.78;76.30;98731.48;234422;215;147661;-60
2023/10/22 21:11:31;;;;;;;9.70;6.00;;;;;;;14.80;76.07;98736.85;234451;215;139559;-63
2023/10/22 21:16:34;;;;;;;14.70;6.40;;;;;;;14.76;76.08;98743.05;234418;215;137733;-62
2023/10/22 21:21:40;;;;;;;10.80;7.60;;;;;;;14.73;75.99;98750.45;233965;215;147363;-58
2023/10/22 21:26:44;;;;;;;8.90;6.20;;;;;;;14.70;76.03;98763.62;234420;214;139693;-62
2023/10/22 21:31:47;;;;;;;11.00;6.30;;;;;;;14.63;76.04;98770.08;234420;214;138083;-62
2023/10/22 21:36:50;;;;;;;8.60;5.50;;;;;;;14.59;76.10;98770.38;234406;214;147494;-61
2023/10/22 21:41:53;;;;;;;13.30;6.20;;;;;;;14.59;75.95;98771.45;234010;215;139146;-59
2023/10/22 21:46:57;;;;;;;11.20;5.60;;;;;;;14.61;75.70;98767.75;233607;215;137891;-62
2023/10/22 21:52:01;;;;;;;11.30;6.60;;;;;;;14.59;75.62;98770.77;234370;215;149088;-60
2023/10/22 21:57:04;;;;;;;14.30;8.20;;;;;;;14.55;75.43;98776.29;233407;215;138806;-59
2023/10/22 22:02:08;;;;;;;13.90;6.80;;;;;;;14.52;75.37;98780.98;234304;215;136880;-60
2023/10/22 22:07:11;;;;;;;13.80;6.30;;;;;;;14.48;75.06;98785.40;233961;212;148368;-57
2023/10/22 22:12:14;;;;;;;11.60;6.20;;;;;;;14.41;74.96;98791.64;234390;214;139351;-60
2023/10/22 22:17:17;;;;;;;10.30;6.10;;;;;;;14.39;74.87;98790.22;234567;214;138359;-59
2023/10/22 22:22:21;;;;;;;9.60;6.00;;;;;;;14.36;74.73;98789.73;234216;214;147230;-61
2023/10/22 22:27:24;;;;;;;8.60;5.20;;;;;;;14.35;74.58;98793.77;234542;214;139303;-59
2023/10/22 22:32:28;;;;;;;10.00;5.40;;;;;;;14.30;74.28;98798.42;234438;214;137449;-60
2023/10/22 22:37:31;;;;;;;11.10;5.40;;;;;;;14.24;74.16;98799.34;234268;215;147521;-60
2023/10/22 22:42:34;;;;;;;10.40;5.30;;;;;;;14.13;74.23;98805.66;234129;214;139006;-62
2023/10/22 22:47:38;;;;;;;7.30;4.60;;;;;;;14.06;74.24;98810.17;234447;214;138182;-57
2023/10/22 22:52:41;;;;;;;10.50;5.30;;;;;;;14.04;74.28;98810.52;234407;214;148334;-62
2023/10/22 22:57:44;;;;;;;9.80;5.60;;;;;;;13.99;74.27;98814.31;234559;214;139474;-61
2023/10/22 23:02:47;;;;;;;8.30;5.70;;;;;;;13.90;74.47;98814.83;234513;214;137783;-62
2023/10/22 23:07:51;;;;;;;11.10;6.40;;;;;;;13.86;74.65;98819.83;234593;214;148493;-61
2023/10/22 23:12:54;;;;;;;13.50;6.00;;;;;;;13.83;74.70;98821.97;234442;214;139059;-62
2023/10/22 23:17:57;;;;;;;10.80;6.10;;;;;;;13.80;74.84;98821.50;234448;214;137950;-61
2023/10/22 23:23:01;;;;;;;9.10;5.30;;;;;;;13.76;74.91;98826.14;234541;214;149359;-59
2023/10/22 23:28:04;;;;;;;11.10;5.80;;;;;;;13.76;74.99;98826.87;234415;214;140591;-59